KAAF/AAF METAR and TAF weather

Enter ICAO airport designator
Station Type Date Time Source
KAAF METAR 2019/06/17 11:53 UTC NOAA

KAAF 171153Z AUTO 03003KT 10SM FEW020 25/23 A2999 RMK AO2 SLP155 T02500228 10272 20233 51004


Station Type Date Time Source
KAAF Decoded METAR 2019/06/17 11:53 UTC NOAA

APALACHICOLA MUNICIPAL AIRPORT, FL, United States (KAAF) 29-44N 085-01W 5M
Jun 17, 2019 - 07:53 AM EDT / 2019.06.17 1153 UTC
Wind: from the NNE (030 degrees) at 3 MPH (3 KT):0
Visibility: 10 mile(s):0
Sky conditions: mostly clear
Temperature: 77.0 F (25.0 C)
Dew Point: 73.0 F (22.8 C)
Relative Humidity: 87%
Pressure (altimeter): 29.99 in. Hg (1015 hPa)
Pressure tendency: 0.01 inches (0.4 hPa) higher than three hours ago
ob: KAAF 171153Z AUTO 03003KT 10SM FEW020 25/23 A2999 RMK AO2 SLP155 T02500228 10272 20233 51004
cycle: 12

Station Type Date Time Source
KAAF TAF UTC NOAA

Error!

Example: see airport list